sensor_id;sensor_type;location;lat;lon;timestamp;temperature;humidity
9125;DHT22;4597;48.730;9.114;2023-01-16T00:00:26;4.10;99.90
9125;DHT22;4597;48.730;9.114;2023-01-16T00:02:52;4.10;99.90
9125;DHT22;4597;48.730;9.114;2023-01-16T00:05:17;4.10;99.90
9125;DHT22;4597;48.730;9.114;2023-01-16T00:07:43;4.10;99.90
9125;DHT22;4597;48.730;9.114;2023-01-16T00:10:09;4.10;99.90
9125;DHT22;4597;48.730;9.114;2023-01-16T00:12:34;4.10;99.90
9125;DHT22;4597;48.730;9.114;2023-01-16T00:15:00;4.10;99.90
9125;DHT22;4597;48.730;9.114;2023-01-16T00:17:25;4.00;99.90
9125;DHT22;4597;48.730;9.114;2023-01-16T00:19:51;4.10;99.90
9125;DHT22;4597;48.730;9.114;2023-01-16T00:22:17;4.10;99.90
9125;DHT22;4597;48.730;9.114;2023-01-16T00:24:42;4.20;99.90
9125;DHT22;4597;48.730;9.114;2023-01-16T00:27:08;4.20;99.90
9125;DHT22;4597;48.730;9.114;2023-01-16T00:29:33;4.20;99.90
9125;DHT22;4597;48.730;9.114;2023-01-16T00:32:00;4.20;99.90
9125;DHT22;4597;48.730;9.114;2023-01-16T00:34:25;4.30;99.90
9125;DHT22;4597;48.730;9.114;2023-01-16T00:36:51;4.30;99.90
9125;DHT22;4597;48.730;9.114;2023-01-16T00:39:16;4.20;99.90
9125;DHT22;4597;48.730;9.114;2023-01-16T00:41:42;4.30;99.90
9125;DHT22;4597;48.730;9.114;2023-01-16T00:44:07;4.30;99.90
9125;DHT22;4597;48.730;9.114;2023-01-16T00:46:33;4.30;99.90
9125;DHT22;4597;48.730;9.114;2023-01-16T00:48:58;4.30;99.90
9125;DHT22;4597;48.730;9.114;2023-01-16T00:51:24;4.30;99.90
9125;DHT22;4597;48.730;9.114;2023-01-16T00:53:50;4.20;99.90
9125;DHT22;4597;48.730;9.114;2023-01-16T00:56:16;4.20;99.90
9125;DHT22;4597;48.730;9.114;2023-01-16T00:58:41;4.10;99.90
9125;DHT22;4597;48.730;9.114;2023-01-16T01:01:07;4.10;99.90
9125;DHT22;4597;48.730;9.114;2023-01-16T01:03:32;4.00;99.90
9125;DHT22;4597;48.730;9.114;2023-01-16T01:05:58;4.00;99.90
9125;DHT22;4597;48.730;9.114;2023-01-16T01:08:24;3.90;99.90
9125;DHT22;4597;48.730;9.114;2023-01-16T01:10:49;3.90;99.90
9125;DHT22;4597;48.730;9.114;2023-01-16T01:13:15;3.90;99.90
9125;DHT22;4597;48.730;9.114;2023-01-16T01:15:40;3.90;99.90
9125;DHT22;4597;48.730;9.114;2023-01-16T01:18:06;3.90;99.90
9125;DHT22;4597;48.730;9.114;2023-01-16T01:20:32;3.90;99.90
9125;DHT22;4597;48.730;9.114;2023-01-16T01:22:58;3.90;99.90
9125;DHT22;4597;48.730;9.114;2023-01-16T01:25:23;3.90;99.90
9125;DHT22;4597;48.730;9.114;2023-01-16T01:27:49;3.80;99.90
9125;DHT22;4597;48.730;9.114;2023-01-16T01:30:15;3.70;99.90
9125;DHT22;4597;48.730;9.114;2023-01-16T01:32:41;3.70;99.90
9125;DHT22;4597;48.730;9.114;2023-01-16T01:35:07;3.60;99.90
9125;DHT22;4597;48.730;9.114;2023-01-16T01:37:33;3.60;99.90
9125;DHT22;4597;48.730;9.114;2023-01-16T01:40:00;3.60;99.90
9125;DHT22;4597;48.730;9.114;2023-01-16T01:42:26;3.60;99.90
9125;DHT22;4597;48.730;9.114;2023-01-16T01:45:20;3.50;99.90
9125;DHT22;4597;48.730;9.114;2023-01-16T01:47:51;3.40;99.90
9125;DHT22;4597;48.730;9.114;2023-01-16T01:50:27;3.40;99.90
9125;DHT22;4597;48.730;9.114;2023-01-16T01:52:54;3.40;99.90
9125;DHT22;4597;48.730;9.114;2023-01-16T01:55:22;3.30;99.90
9125;DHT22;4597;48.730;9.114;2023-01-16T01:57:51;3.30;99.90
9125;DHT22;4597;48.730;9.114;2023-01-16T02:00:22;3.20;99.90
9125;DHT22;4597;48.730;9.114;2023-01-16T02:02:53;3.20;99.90
9125;DHT22;4597;48.730;9.114;2023-01-16T02:05:24;3.20;99.90
9125;DHT22;4597;48.730;9.114;2023-01-16T02:07:51;3.20;99.90
9125;DHT22;4597;48.730;9.114;2023-01-16T02:10:45;3.10;99.90
9125;DHT22;4597;48.730;9.114;2023-01-16T02:13:12;3.10;99.90
9125;DHT22;4597;48.730;9.114;2023-01-16T02:15:38;3.10;99.90
9125;DHT22;4597;48.730;9.114;2023-01-16T02:18:27;3.10;99.90
9125;DHT22;4597;48.730;9.114;2023-01-16T02:21:16;3.10;99.90
9125;DHT22;4597;48.730;9.114;2023-01-16T02:24:03;3.10;99.90
9125;DHT22;4597;48.730;9.114;2023-01-16T02:26:41;3.10;99.90
9125;DHT22;4597;48.730;9.114;2023-01-16T02:29:30;3.10;99.90
9125;DHT22;4597;48.730;9.114;2023-01-16T02:37:29;3.20;99.90
9125;DHT22;4597;48.730;9.114;2023-01-16T02:43:29;3.30;99.90
9125;DHT22;4597;48.730;9.114;2023-01-16T02:49:20;3.30;99.90
9125;DHT22;4597;48.730;9.114;2023-01-16T02:51:57;3.30;99.90
9125;DHT22;4597;48.730;9.114;2023-01-16T02:54:31;3.30;99.90
9125;DHT22;4597;48.730;9.114;2023-01-16T02:57:04;3.40;99.90
9125;DHT22;4597;48.730;9.114;2023-01-16T02:59:32;3.40;99.90
9125;DHT22;4597;48.730;9.114;2023-01-16T03:01:58;3.40;99.90
9125;DHT22;4597;48.730;9.114;2023-01-16T03:04:43;3.50;99.90
9125;DHT22;4597;48.730;9.114;2023-01-16T03:07:34;3.70;99.90
9125;DHT22;4597;48.730;9.114;2023-01-16T03:10:18;3.60;99.90
9125;DHT22;4597;48.730;9.114;2023-01-16T03:13:21;3.70;99.90
9125;DHT22;4597;48.730;9.114;2023-01-16T03:16:35;3.70;99.90
9125;DHT22;4597;48.730;9.114;2023-01-16T03:19:12;3.70;99.90
9125;DHT22;4597;48.730;9.114;2023-01-16T03:24:44;3.80;99.90
9125;DHT22;4597;48.730;9.114;2023-01-16T03:33:21;3.90;99.90
9125;DHT22;4597;48.730;9.114;2023-01-16T03:35:51;3.90;99.90
9125;DHT22;4597;48.730;9.114;2023-01-16T03:38:19;3.90;99.90
9125;DHT22;4597;48.730;9.114;2023-01-16T03:40:47;3.90;99.90
9125;DHT22;4597;48.730;9.114;2023-01-16T03:43:18;4.00;99.90
9125;DHT22;4597;48.730;9.114;2023-01-16T03:46:07;4.00;99.90
9125;DHT22;4597;48.730;9.114;2023-01-16T03:48:50;4.00;99.90
9125;DHT22;4597;48.730;9.114;2023-01-16T03:51:25;4.00;99.90
9125;DHT22;4597;48.730;9.114;2023-01-16T03:58:54;4.00;99.90
9125;DHT22;4597;48.730;9.114;2023-01-16T04:04:22;4.00;99.90
9125;DHT22;4597;48.730;9.114;2023-01-16T04:10:00;4.00;99.90
9125;DHT22;4597;48.730;9.114;2023-01-16T04:12:35;4.00;99.90
9125;DHT22;4597;48.730;9.114;2023-01-16T04:15:04;4.00;99.90
9125;DHT22;4597;48.730;9.114;2023-01-16T04:17:31;4.00;99.90
9125;DHT22;4597;48.730;9.114;2023-01-16T04:19:56;4.00;99.90
9125;DHT22;4597;48.730;9.114;2023-01-16T04:22:27;3.90;99.90
9125;DHT22;4597;48.730;9.114;2023-01-16T04:24:56;3.90;99.90
9125;DHT22;4597;48.730;9.114;2023-01-16T04:27:22;3.90;99.90
9125;DHT22;4597;48.730;9.114;2023-01-16T04:29:48;3.90;99.90
9125;DHT22;4597;48.730;9.114;2023-01-16T04:32:14;3.80;99.90
9125;DHT22;4597;48.730;9.114;2023-01-16T04:34:39;3.70;99.90
9125;DHT22;4597;48.730;9.114;2023-01-16T04:37:06;3.70;99.90
9125;DHT22;4597;48.730;9.114;2023-01-16T04:39:31;3.60;99.90
9125;DHT22;4597;48.730;9.114;2023-01-16T04:41:57;3.50;99.90
9125;DHT22;4597;48.730;9.114;2023-01-16T04:44:23;3.40;99.90
9125;DHT22;4597;48.730;9.114;2023-01-16T04:46:48;3.40;99.90
9125;DHT22;4597;48.730;9.114;2023-01-16T04:49:14;3.40;99.90
9125;DHT22;4597;48.730;9.114;2023-01-16T04:51:39;3.30;99.90
9125;DHT22;4597;48.730;9.114;2023-01-16T04:54:06;3.20;99.90
9125;DHT22;4597;48.730;9.114;2023-01-16T04:56:32;3.30;99.90
9125;DHT22;4597;48.730;9.114;2023-01-16T04:58:58;3.20;99.90
9125;DHT22;4597;48.730;9.114;2023-01-16T05:01:23;3.20;99.90
9125;DHT22;4597;48.730;9.114;2023-01-16T05:03:49;3.20;99.90
9125;DHT22;4597;48.730;9.114;2023-01-16T05:06:15;3.10;99.90
9125;DHT22;4597;48.730;9.114;2023-01-16T05:08:41;3.10;99.90
9125;DHT22;4597;48.730;9.114;2023-01-16T05:11:06;3.10;99.90
9125;DHT22;4597;48.730;9.114;2023-01-16T05:13:32;3.10;99.90
9125;DHT22;4597;48.730;9.114;2023-01-16T05:15:57;3.00;99.90
9125;DHT22;4597;48.730;9.114;2023-01-16T05:18:23;3.00;99.90
9125;DHT22;4597;48.730;9.114;2023-01-16T05:20:49;3.00;99.90
9125;DHT22;4597;48.730;9.114;2023-01-16T05:23:15;3.00;99.90
9125;DHT22;4597;48.730;9.114;2023-01-16T05:25:40;2.90;99.90
9125;DHT22;4597;48.730;9.114;2023-01-16T05:28:06;2.90;99.90
9125;DHT22;4597;48.730;9.114;2023-01-16T05:30:32;2.90;99.90
9125;DHT22;4597;48.730;9.114;2023-01-16T05:32:58;2.90;99.90
9125;DHT22;4597;48.730;9.114;2023-01-16T05:35:24;2.90;99.90
9125;DHT22;4597;48.730;9.114;2023-01-16T05:37:49;2.90;99.90
9125;DHT22;4597;48.730;9.114;2023-01-16T05:40:15;2.90;99.90
9125;DHT22;4597;48.730;9.114;2023-01-16T05:42:44;2.90;99.90
9125;DHT22;4597;48.730;9.114;2023-01-16T05:45:10;2.90;99.90
9125;DHT22;4597;48.730;9.114;2023-01-16T05:47:36;2.90;99.90
9125;DHT22;4597;48.730;9.114;2023-01-16T05:50:02;2.90;99.90
9125;DHT22;4597;48.730;9.114;2023-01-16T05:52:27;2.90;99.90
9125;DHT22;4597;48.730;9.114;2023-01-16T05:54:54;2.90;99.90
9125;DHT22;4597;48.730;9.114;2023-01-16T05:57:20;2.90;99.90
9125;DHT22;4597;48.730;9.114;2023-01-16T05:59:49;2.80;99.90
9125;DHT22;4597;48.730;9.114;2023-01-16T06:02:16;2.80;99.90
9125;DHT22;4597;48.730;9.114;2023-01-16T06:04:42;2.80;99.90
9125;DHT22;4597;48.730;9.114;2023-01-16T06:07:07;2.80;99.90
9125;DHT22;4597;48.730;9.114;2023-01-16T06:09:33;2.70;99.90
9125;DHT22;4597;48.730;9.114;2023-01-16T06:11:58;2.70;99.90
9125;DHT22;4597;48.730;9.114;2023-01-16T06:14:24;2.60;99.90
9125;DHT22;4597;48.730;9.114;2023-01-16T06:16:49;2.70;99.90
9125;DHT22;4597;48.730;9.114;2023-01-16T06:19:15;2.70;99.90
9125;DHT22;4597;48.730;9.114;2023-01-16T06:21:40;2.70;99.90
9125;DHT22;4597;48.730;9.114;2023-01-16T06:24:06;2.70;99.90
9125;DHT22;4597;48.730;9.114;2023-01-16T06:26:32;2.70;99.90
9125;DHT22;4597;48.730;9.114;2023-01-16T06:28:57;2.70;99.90
9125;DHT22;4597;48.730;9.114;2023-01-16T06:31:23;2.70;99.90
9125;DHT22;4597;48.730;9.114;2023-01-16T06:33:48;2.70;99.90
9125;DHT22;4597;48.730;9.114;2023-01-16T06:36:14;2.70;99.90
9125;DHT22;4597;48.730;9.114;2023-01-16T06:38:39;2.70;99.90
9125;DHT22;4597;48.730;9.114;2023-01-16T06:41:05;2.70;99.90
9125;DHT22;4597;48.730;9.114;2023-01-16T06:43:30;2.70;99.90
9125;DHT22;4597;48.730;9.114;2023-01-16T06:45:56;2.70;99.90
9125;DHT22;4597;48.730;9.114;2023-01-16T06:48:22;2.70;99.90
9125;DHT22;4597;48.730;9.114;2023-01-16T06:50:48;2.70;99.90
9125;DHT22;4597;48.730;9.114;2023-01-16T06:53:13;2.70;99.90
9125;DHT22;4597;48.730;9.114;2023-01-16T06:55:40;2.70;99.90
9125;DHT22;4597;48.730;9.114;2023-01-16T06:58:07;2.70;99.90
9125;DHT22;4597;48.730;9.114;2023-01-16T07:00:33;2.70;99.90
9125;DHT22;4597;48.730;9.114;2023-01-16T07:03:00;2.70;99.90
9125;DHT22;4597;48.730;9.114;2023-01-16T07:05:27;2.70;99.90
9125;DHT22;4597;48.730;9.114;2023-01-16T07:07:53;2.70;99.90
9125;DHT22;4597;48.730;9.114;2023-01-16T07:10:19;2.70;99.90
9125;DHT22;4597;48.730;9.114;2023-01-16T07:12:46;2.70;99.90
9125;DHT22;4597;48.730;9.114;2023-01-16T07:15:12;2.70;99.90
9125;DHT22;4597;48.730;9.114;2023-01-16T07:17:56;2.70;99.90
9125;DHT22;4597;48.730;9.114;2023-01-16T07:20:40;2.70;99.90
9125;DHT22;4597;48.730;9.114;2023-01-16T07:23:28;2.70;99.90
9125;DHT22;4597;48.730;9.114;2023-01-16T07:25:56;2.60;99.90
9125;DHT22;4597;48.730;9.114;2023-01-16T07:28:24;2.60;99.90
9125;DHT22;4597;48.730;9.114;2023-01-16T07:30:50;2.60;99.90
9125;DHT22;4597;48.730;9.114;2023-01-16T07:33:15;2.60;99.90
9125;DHT22;4597;48.730;9.114;2023-01-16T07:35:41;2.60;99.90
9125;DHT22;4597;48.730;9.114;2023-01-16T07:38:08;2.60;99.90
9125;DHT22;4597;48.730;9.114;2023-01-16T07:40:33;2.60;99.90
9125;DHT22;4597;48.730;9.114;2023-01-16T07:42:58;2.70;99.90
9125;DHT22;4597;48.730;9.114;2023-01-16T07:45:24;2.70;99.90
9125;DHT22;4597;48.730;9.114;2023-01-16T07:47:50;2.80;99.90
9125;DHT22;4597;48.730;9.114;2023-01-16T07:50:15;2.80;99.90
9125;DHT22;4597;48.730;9.114;2023-01-16T07:52:42;2.90;99.90
9125;DHT22;4597;48.730;9.114;2023-01-16T07:55:09;3.00;99.90
9125;DHT22;4597;48.730;9.114;2023-01-16T07:57:36;3.00;99.90
9125;DHT22;4597;48.730;9.114;2023-01-16T08:00:03;3.10;99.90
9125;DHT22;4597;48.730;9.114;2023-01-16T08:02:29;3.10;99.90
9125;DHT22;4597;48.730;9.114;2023-01-16T08:04:55;3.30;99.90
9125;DHT22;4597;48.730;9.114;2023-01-16T08:07:21;3.30;99.90
9125;DHT22;4597;48.730;9.114;2023-01-16T08:09:46;3.40;99.90
9125;DHT22;4597;48.730;9.114;2023-01-16T08:12:12;3.40;99.90
9125;DHT22;4597;48.730;9.114;2023-01-16T08:14:37;3.50;99.90
9125;DHT22;4597;48.730;9.114;2023-01-16T08:17:04;3.50;99.90
9125;DHT22;4597;48.730;9.114;2023-01-16T08:19:30;3.50;99.90
9125;DHT22;4597;48.730;9.114;2023-01-16T08:21:55;3.60;99.90
9125;DHT22;4597;48.730;9.114;2023-01-16T08:24:21;3.60;99.90
9125;DHT22;4597;48.730;9.114;2023-01-16T08:26:48;3.70;99.90
9125;DHT22;4597;48.730;9.114;2023-01-16T08:29:14;3.70;99.90
9125;DHT22;4597;48.730;9.114;2023-01-16T08:31:39;3.70;99.90
9125;DHT22;4597;48.730;9.114;2023-01-16T08:34:05;3.70;99.90
9125;DHT22;4597;48.730;9.114;2023-01-16T08:36:30;3.80;99.90
9125;DHT22;4597;48.730;9.114;2023-01-16T08:38:56;3.90;99.90
9125;DHT22;4597;48.730;9.114;2023-01-16T08:41:21;3.90;99.90
9125;DHT22;4597;48.730;9.114;2023-01-16T08:44:06;4.00;99.90
9125;DHT22;4597;48.730;9.114;2023-01-16T08:46:58;4.00;99.90
9125;DHT22;4597;48.730;9.114;2023-01-16T08:49:44;4.00;99.90
9125;DHT22;4597;48.730;9.114;2023-01-16T08:52:29;4.00;99.90
9125;DHT22;4597;48.730;9.114;2023-01-16T08:54:56;4.10;99.90
9125;DHT22;4597;48.730;9.114;2023-01-16T08:57:22;4.10;99.90
9125;DHT22;4597;48.730;9.114;2023-01-16T08:59:48;4.10;99.90
9125;DHT22;4597;48.730;9.114;2023-01-16T09:02:14;4.10;99.90
9125;DHT22;4597;48.730;9.114;2023-01-16T09:04:40;4.10;99.90
9125;DHT22;4597;48.730;9.114;2023-01-16T09:07:06;4.10;99.90
9125;DHT22;4597;48.730;9.114;2023-01-16T09:09:31;4.20;99.90
9125;DHT22;4597;48.730;9.114;2023-01-16T09:11:57;4.20;99.90
9125;DHT22;4597;48.730;9.114;2023-01-16T09:14:42;4.20;99.90
9125;DHT22;4597;48.730;9.114;2023-01-16T09:17:09;4.20;99.90
9125;DHT22;4597;48.730;9.114;2023-01-16T09:19:35;4.20;99.90
9125;DHT22;4597;48.730;9.114;2023-01-16T09:22:01;4.20;99.90
9125;DHT22;4597;48.730;9.114;2023-01-16T09:24:27;4.20;99.90
9125;DHT22;4597;48.730;9.114;2023-01-16T09:26:52;4.20;99.90
9125;DHT22;4597;48.730;9.114;2023-01-16T09:29:18;4.30;99.90
9125;DHT22;4597;48.730;9.114;2023-01-16T09:31:43;4.30;99.90
9125;DHT22;4597;48.730;9.114;2023-01-16T09:34:09;4.30;99.90
9125;DHT22;4597;48.730;9.114;2023-01-16T09:36:34;4.30;99.90
9125;DHT22;4597;48.730;9.114;2023-01-16T09:39:00;4.30;99.90
9125;DHT22;4597;48.730;9.114;2023-01-16T09:41:26;4.40;99.90
9125;DHT22;4597;48.730;9.114;2023-01-16T09:44:13;4.40;99.90
9125;DHT22;4597;48.730;9.114;2023-01-16T09:46:45;4.40;99.90
9125;DHT22;4597;48.730;9.114;2023-01-16T09:49:46;4.40;99.90
9125;DHT22;4597;48.730;9.114;2023-01-16T09:52:17;4.40;99.90
9125;DHT22;4597;48.730;9.114;2023-01-16T09:55:27;4.40;99.90
9125;DHT22;4597;48.730;9.114;2023-01-16T09:58:20;4.50;99.90
9125;DHT22;4597;48.730;9.114;2023-01-16T10:01:02;4.50;99.90
9125;DHT22;4597;48.730;9.114;2023-01-16T10:03:27;4.60;99.90
9125;DHT22;4597;48.730;9.114;2023-01-16T10:06:14;4.70;99.90
9125;DHT22;4597;48.730;9.114;2023-01-16T10:11:42;4.80;99.90
9125;DHT22;4597;48.730;9.114;2023-01-16T10:16:56;4.90;99.90
9125;DHT22;4597;48.730;9.114;2023-01-16T10:19:47;4.90;99.90
9125;DHT22;4597;48.730;9.114;2023-01-16T10:25:22;5.10;99.90
9125;DHT22;4597;48.730;9.114;2023-01-16T10:30:44;5.10;99.90
9125;DHT22;4597;48.730;9.114;2023-01-16T10:33:16;5.20;99.90
9125;DHT22;4597;48.730;9.114;2023-01-16T10:35:46;5.20;99.90
9125;DHT22;4597;48.730;9.114;2023-01-16T10:38:39;5.20;99.90
9125;DHT22;4597;48.730;9.114;2023-01-16T10:41:09;5.30;99.90
9125;DHT22;4597;48.730;9.114;2023-01-16T10:43:57;5.30;99.90
9125;DHT22;4597;48.730;9.114;2023-01-16T10:46:42;5.20;99.90
9125;DHT22;4597;48.730;9.114;2023-01-16T10:49:33;5.30;99.90
9125;DHT22;4597;48.730;9.114;2023-01-16T10:52:01;5.30;99.90
9125;DHT22;4597;48.730;9.114;2023-01-16T10:54:28;5.30;99.90
9125;DHT22;4597;48.730;9.114;2023-01-16T10:56:54;5.30;99.90
9125;DHT22;4597;48.730;9.114;2023-01-16T10:59:23;5.30;99.90
9125;DHT22;4597;48.730;9.114;2023-01-16T11:01:50;5.30;99.90
9125;DHT22;4597;48.730;9.114;2023-01-16T11:04:18;5.40;99.90
9125;DHT22;4597;48.730;9.114;2023-01-16T11:06:45;5.40;99.90
9125;DHT22;4597;48.730;9.114;2023-01-16T11:11:40;5.40;99.90
9125;DHT22;4597;48.730;9.114;2023-01-16T11:14:30;5.40;99.90
9125;DHT22;4597;48.730;9.114;2023-01-16T11:17:21;5.50;99.90
9125;DHT22;4597;48.730;9.114;2023-01-16T11:20:16;5.50;99.90
9125;DHT22;4597;48.730;9.114;2023-01-16T11:22:44;5.50;99.90
9125;DHT22;4597;48.730;9.114;2023-01-16T11:25:14;5.60;99.90
9125;DHT22;4597;48.730;9.114;2023-01-16T11:27:44;5.80;99.90
9125;DHT22;4597;48.730;9.114;2023-01-16T11:30:26;5.90;99.90
9125;DHT22;4597;48.730;9.114;2023-01-16T11:32:54;6.00;99.90
9125;DHT22;4597;48.730;9.114;2023-01-16T11:35:28;6.00;99.90
9125;DHT22;4597;48.730;9.114;2023-01-16T11:37:55;6.10;99.90
9125;DHT22;4597;48.730;9.114;2023-01-16T11:40:24;6.00;99.90
9125;DHT22;4597;48.730;9.114;2023-01-16T11:42:55;6.00;99.90
9125;DHT22;4597;48.730;9.114;2023-01-16T11:45:45;6.10;99.90
9125;DHT22;4597;48.730;9.114;2023-01-16T11:48:43;6.20;99.90
9125;DHT22;4597;48.730;9.114;2023-01-16T11:51:16;6.30;99.90
9125;DHT22;4597;48.730;9.114;2023-01-16T11:53:44;6.30;99.90
9125;DHT22;4597;48.730;9.114;2023-01-16T12:10:41;6.50;99.90
9125;DHT22;4597;48.730;9.114;2023-01-16T12:13:11;6.60;99.90
9125;DHT22;4597;48.730;9.114;2023-01-16T12:16:05;6.60;99.90
9125;DHT22;4597;48.730;9.114;2023-01-16T12:19:17;6.70;99.90
9125;DHT22;4597;48.730;9.114;2023-01-16T12:27:41;6.80;99.90
9125;DHT22;4597;48.730;9.114;2023-01-16T12:33:09;6.90;99.90
9125;DHT22;4597;48.730;9.114;2023-01-16T12:35:58;6.90;99.90
9125;DHT22;4597;48.730;9.114;2023-01-16T12:38:27;7.00;99.90
9125;DHT22;4597;48.730;9.114;2023-01-16T12:43:55;7.00;99.90
9125;DHT22;4597;48.730;9.114;2023-01-16T12:49:23;7.00;99.90
9125;DHT22;4597;48.730;9.114;2023-01-16T12:54:46;7.10;99.90
9125;DHT22;4597;48.730;9.114;2023-01-16T12:57:29;7.20;99.90
9125;DHT22;4597;48.730;9.114;2023-01-16T13:00:22;7.30;99.90
9125;DHT22;4597;48.730;9.114;2023-01-16T13:03:09;7.30;99.90
9125;DHT22;4597;48.730;9.114;2023-01-16T13:05:38;7.40;99.90
9125;DHT22;4597;48.730;9.114;2023-01-16T13:08:22;7.50;99.90
9125;DHT22;4597;48.730;9.114;2023-01-16T13:10:52;7.50;99.90
9125;DHT22;4597;48.730;9.114;2023-01-16T13:13:47;7.60;99.90
9125;DHT22;4597;48.730;9.114;2023-01-16T13:16:26;7.60;99.90
9125;DHT22;4597;48.730;9.114;2023-01-16T13:19:11;7.60;99.90
9125;DHT22;4597;48.730;9.114;2023-01-16T13:21:52;7.70;99.90
9125;DHT22;4597;48.730;9.114;2023-01-16T13:24:29;7.70;99.90
9125;DHT22;4597;48.730;9.114;2023-01-16T13:27:02;7.70;99.90
9125;DHT22;4597;48.730;9.114;2023-01-16T13:29:33;7.80;99.90
9125;DHT22;4597;48.730;9.114;2023-01-16T13:34:52;8.00;99.90
9125;DHT22;4597;48.730;9.114;2023-01-16T13:43:06;8.20;99.90
9125;DHT22;4597;48.730;9.114;2023-01-16T13:45:53;8.40;99.90
9125;DHT22;4597;48.730;9.114;2023-01-16T13:48:22;8.40;99.90
9125;DHT22;4597;48.730;9.114;2023-01-16T13:50:56;8.40;99.90
9125;DHT22;4597;48.730;9.114;2023-01-16T13:53:25;8.50;99.90
9125;DHT22;4597;48.730;9.114;2023-01-16T13:58:32;8.50;99.90
9125;DHT22;4597;48.730;9.114;2023-01-16T14:01:03;8.50;99.90
9125;DHT22;4597;48.730;9.114;2023-01-16T14:03:32;8.50;99.90
9125;DHT22;4597;48.730;9.114;2023-01-16T14:08:45;8.50;99.90
9125;DHT22;4597;48.730;9.114;2023-01-16T14:11:37;8.60;99.90
9125;DHT22;4597;48.730;9.114;2023-01-16T14:14:22;8.60;99.90
9125;DHT22;4597;48.730;9.114;2023-01-16T14:17:10;8.60;99.90
9125;DHT22;4597;48.730;9.114;2023-01-16T14:22:23;8.40;99.90
9125;DHT22;4597;48.730;9.114;2023-01-16T14:24:55;8.30;99.90
9125;DHT22;4597;48.730;9.114;2023-01-16T14:27:28;8.20;99.90
9125;DHT22;4597;48.730;9.114;2023-01-16T14:30:15;8.10;99.90
9125;DHT22;4597;48.730;9.114;2023-01-16T14:32:50;8.00;99.90
9125;DHT22;4597;48.730;9.114;2023-01-16T14:35:20;7.90;99.90
9125;DHT22;4597;48.730;9.114;2023-01-16T14:37:56;7.90;99.90
9125;DHT22;4597;48.730;9.114;2023-01-16T14:40:25;7.90;99.90
9125;DHT22;4597;48.730;9.114;2023-01-16T14:43:15;7.90;99.90
9125;DHT22;4597;48.730;9.114;2023-01-16T14:58:07;7.70;99.90
9125;DHT22;4597;48.730;9.114;2023-01-16T15:00:34;7.50;99.90
9125;DHT22;4597;48.730;9.114;2023-01-16T15:03:14;7.40;99.90
9125;DHT22;4597;48.730;9.114;2023-01-16T15:05:56;7.20;99.90
9125;DHT22;4597;48.730;9.114;2023-01-16T15:08:26;7.10;99.90
9125;DHT22;4597;48.730;9.114;2023-01-16T15:10:54;7.00;99.90
9125;DHT22;4597;48.730;9.114;2023-01-16T15:13:24;6.90;99.90
9125;DHT22;4597;48.730;9.114;2023-01-16T15:15:58;6.80;99.90
9125;DHT22;4597;48.730;9.114;2023-01-16T15:18:24;6.70;99.90
9125;DHT22;4597;48.730;9.114;2023-01-16T15:21:13;6.70;99.90
9125;DHT22;4597;48.730;9.114;2023-01-16T15:23:57;6.50;99.90
9125;DHT22;4597;48.730;9.114;2023-01-16T15:26:40;6.50;99.90
9125;DHT22;4597;48.730;9.114;2023-01-16T15:32:04;6.40;99.90
9125;DHT22;4597;48.730;9.114;2023-01-16T15:34:32;6.30;99.90
9125;DHT22;4597;48.730;9.114;2023-01-16T15:36:59;6.30;99.90
9125;DHT22;4597;48.730;9.114;2023-01-16T15:42:09;6.10;99.90
9125;DHT22;4597;48.730;9.114;2023-01-16T15:44:57;6.10;99.90
9125;DHT22;4597;48.730;9.114;2023-01-16T15:53:00;6.00;99.90
9125;DHT22;4597;48.730;9.114;2023-01-16T15:55:29;6.00;99.90
9125;DHT22;4597;48.730;9.114;2023-01-16T15:58:00;5.90;99.90
9125;DHT22;4597;48.730;9.114;2023-01-16T16:00:33;5.90;99.90
9125;DHT22;4597;48.730;9.114;2023-01-16T16:03:14;5.90;99.90
9125;DHT22;4597;48.730;9.114;2023-01-16T16:05:44;5.90;99.90
9125;DHT22;4597;48.730;9.114;2023-01-16T16:08:22;5.90;99.90
9125;DHT22;4597;48.730;9.114;2023-01-16T16:10:48;5.90;99.90
9125;DHT22;4597;48.730;9.114;2023-01-16T16:13:34;5.80;99.90
9125;DHT22;4597;48.730;9.114;2023-01-16T16:16:02;5.80;99.90
9125;DHT22;4597;48.730;9.114;2023-01-16T16:18:59;5.80;99.90
9125;DHT22;4597;48.730;9.114;2023-01-16T16:21:46;5.70;99.90
9125;DHT22;4597;48.730;9.114;2023-01-16T16:24:36;5.60;99.90
9125;DHT22;4597;48.730;9.114;2023-01-16T16:27:06;5.60;99.90
9125;DHT22;4597;48.730;9.114;2023-01-16T16:29:33;5.60;99.90
9125;DHT22;4597;48.730;9.114;2023-01-16T16:32:01;5.50;99.90
9125;DHT22;4597;48.730;9.114;2023-01-16T16:34:27;5.50;99.90
9125;DHT22;4597;48.730;9.114;2023-01-16T16:36:57;5.40;99.90
9125;DHT22;4597;48.730;9.114;2023-01-16T16:41:58;5.40;99.90
9125;DHT22;4597;48.730;9.114;2023-01-16T16:47:39;5.30;99.90
9125;DHT22;4597;48.730;9.114;2023-01-16T16:50:28;5.20;99.90
9125;DHT22;4597;48.730;9.114;2023-01-16T16:55:37;5.10;99.90
9125;DHT22;4597;48.730;9.114;2023-01-16T16:58:14;5.10;99.90
9125;DHT22;4597;48.730;9.114;2023-01-16T17:00:40;5.20;99.90
9125;DHT22;4597;48.730;9.114;2023-01-16T17:03:13;5.20;99.90
9125;DHT22;4597;48.730;9.114;2023-01-16T17:05:40;5.20;99.90
9125;DHT22;4597;48.730;9.114;2023-01-16T17:08:06;5.20;99.90
9125;DHT22;4597;48.730;9.114;2023-01-16T17:10:32;5.20;99.90
9125;DHT22;4597;48.730;9.114;2023-01-16T17:12:57;5.10;99.90
9125;DHT22;4597;48.730;9.114;2023-01-16T17:15:23;5.10;99.90
9125;DHT22;4597;48.730;9.114;2023-01-16T17:17:50;5.00;99.90
9125;DHT22;4597;48.730;9.114;2023-01-16T17:20:23;5.00;99.90
9125;DHT22;4597;48.730;9.114;2023-01-16T17:22:49;5.10;99.90
9125;DHT22;4597;48.730;9.114;2023-01-16T17:25:16;5.10;99.90
9125;DHT22;4597;48.730;9.114;2023-01-16T17:27:50;5.10;99.90
9125;DHT22;4597;48.730;9.114;2023-01-16T17:30:17;5.20;99.90
9125;DHT22;4597;48.730;9.114;2023-01-16T17:32:43;5.20;99.90
9125;DHT22;4597;48.730;9.114;2023-01-16T17:35:13;5.20;99.90
9125;DHT22;4597;48.730;9.114;2023-01-16T17:37:39;5.20;99.90
9125;DHT22;4597;48.730;9.114;2023-01-16T17:40:05;5.20;99.90
9125;DHT22;4597;48.730;9.114;2023-01-16T17:42:32;5.20;99.90
9125;DHT22;4597;48.730;9.114;2023-01-16T17:45:35;5.30;99.90
9125;DHT22;4597;48.730;9.114;2023-01-16T17:48:25;5.30;99.90
9125;DHT22;4597;48.730;9.114;2023-01-16T17:50:51;5.30;99.90
9125;DHT22;4597;48.730;9.114;2023-01-16T17:53:20;5.20;99.90
9125;DHT22;4597;48.730;9.114;2023-01-16T17:55:48;5.20;99.90
9125;DHT22;4597;48.730;9.114;2023-01-16T17:58:29;5.20;99.90
9125;DHT22;4597;48.730;9.114;2023-01-16T18:01:05;5.10;99.90
9125;DHT22;4597;48.730;9.114;2023-01-16T18:03:32;5.10;99.90
9125;DHT22;4597;48.730;9.114;2023-01-16T18:06:08;5.10;99.90
9125;DHT22;4597;48.730;9.114;2023-01-16T18:08:34;5.10;99.90
9125;DHT22;4597;48.730;9.114;2023-01-16T18:11:04;5.10;99.90
9125;DHT22;4597;48.730;9.114;2023-01-16T18:13:50;5.00;99.90
9125;DHT22;4597;48.730;9.114;2023-01-16T18:16:35;5.10;99.90
9125;DHT22;4597;48.730;9.114;2023-01-16T18:19:19;5.10;99.90
9125;DHT22;4597;48.730;9.114;2023-01-16T18:21:45;5.10;99.90
9125;DHT22;4597;48.730;9.114;2023-01-16T18:26:53;5.00;99.90
9125;DHT22;4597;48.730;9.114;2023-01-16T18:29:18;4.90;99.90
9125;DHT22;4597;48.730;9.114;2023-01-16T18:31:44;4.90;99.90
9125;DHT22;4597;48.730;9.114;2023-01-16T18:34:30;4.90;99.90
9125;DHT22;4597;48.730;9.114;2023-01-16T18:36:55;4.90;99.90
9125;DHT22;4597;48.730;9.114;2023-01-16T18:39:21;4.90;99.90
9125;DHT22;4597;48.730;9.114;2023-01-16T18:42:05;4.90;99.90
9125;DHT22;4597;48.730;9.114;2023-01-16T18:44:49;4.90;99.90
9125;DHT22;4597;48.730;9.114;2023-01-16T18:47:33;4.90;99.90
9125;DHT22;4597;48.730;9.114;2023-01-16T18:50:17;4.90;99.90
9125;DHT22;4597;48.730;9.114;2023-01-16T18:53:02;4.90;99.90
9125;DHT22;4597;48.730;9.114;2023-01-16T18:56:03;4.90;99.90